Robijn — PBEJ — position and weather

sailwx.info

Track history (hours):
 
Tides and Currents Weather Stations Pressure Air Temp Water Temp Dewpoint Dewpoint Depression Visibility Wind Speed Wind Dir Waves Ship Positions

Robijn

Last reported at 2015-Sep-02 15:33 UTC. Time now 2015-Sep-02 18:59 UTC.
Position N 55°37' E 015°28'.

Length 90 m; draft 3.7 m.

Type: Cargo ship. MMSI: 245909000.

Date/timePositionNaut miles runAvg speedWind from/ knotsBaromVisibWave heightAir tempDewpointWater temp
2015-Sep-02 15:33N 55°37' E 015°28'1111.3
2015-Sep-02 14:33N 55°32' E 015°10'1111.1
2015-Sep-02 13:34N 55°27' E 014°53'1110.9
2015-Sep-02 12:34N 55°21' E 014°37'1110.9
2015-Sep-02 11:33N 55°12' E 014°25'1110.9
2015-Sep-02 10:33N 55°04' E 014°12'1110.9
2015-Sep-02 09:33N 54°59' E 013°55'1111.1
2015-Sep-02 08:33N 54°55' E 013°37'5011.3
2015-Sep-02 04:11N 54°33' E 012°20'711.3
2015-Sep-02 03:33N 54°27' E 012°14'1111.2
2015-Sep-02 02:33N 54°25' E 011°55'1111.4
2015-Sep-02 01:33N 54°28' E 011°36'1211.6
2015-Sep-02 00:33N 54°32' E 011°18'1212.0
2015-Sep-01 23:33N 54°36' E 010°58'1211.7
2015-Sep-01 22:31N 54°41' E 010°40'1311.7
2015-Sep-01 21:25N 54°49' E 010°21'1011.9
2015-Sep-01 20:33N 54°57' E 010°10'3 0.1
2015-Aug-30 21:13N 54°58' E 010°07'6 8.5
2015-Aug-30 20:33N 54°53' E 010°10'8 8.4
2015-Aug-30 19:33N 54°45' E 010°14'8 8.1
2015-Aug-30 18:33N 54°37' E 010°17'8 7.8
2015-Aug-30 17:33N 54°29' E 010°17'9 8.7
2015-Aug-30 16:33N 54°22' E 010°09'1 1.1
2015-Aug-30 15:33N 54°22' E 010°08'7 7.2
2015-Aug-30 14:33N 54°21' E 009°55'7 7.4
2015-Aug-30 13:33N 54°19' E 009°43'6 6.0
2015-Aug-30 12:33N 54°14' E 009°37'7 7.0
2015-Aug-30 11:31N 54°10' E 009°26'6 5.4
2015-Aug-30 10:22N 54°06' E 009°20'7 8.2
2015-Aug-30 09:33N 53°59' E 009°17'7 7.3
2015-Aug-30 08:33N 53°54' E 009°09'0 0.0
2015-Aug-30 07:33N 53°54' E 009°09'3 3.0
2015-Aug-30 06:33N 53°53' E 009°14'1212.2
2015-Aug-30 05:33N 53°44' E 009°27'1212.0
2015-Aug-30 04:33N 53°34' E 009°39'1010.3
2015-Aug-30 03:33N 53°32' E 009°56'1 0.9
2015-Aug-30 02:31N 53°31' E 009°57'0 0.0
2015-Aug-30 01:31N 53°31' E 009°57'0 0.0
2015-Aug-30 00:31N 53°31' E 009°57'0 0.0
2015-Aug-29 23:31N 53°31' E 009°57'0 0.0
2015-Aug-29 22:31N 53°31' E 009°57'0 0.0
2015-Aug-29 21:31N 53°31' E 009°57'0 0.0
2015-Aug-29 20:31N 53°31' E 009°57'0 0.0
2015-Aug-29 19:33N 53°31' E 009°57'1 1.0
2015-Aug-29 18:33N 53°32' E 009°58'0 0.0
2015-Aug-29 17:31N 53°32' E 009°58'0 0.0
2015-Aug-29 16:31N 53°32' E 009°58'0 0.0
2015-Aug-29 15:31N 53°32' E 009°58'0 0.0
2015-Aug-29 14:28N 53°32' E 009°58'0 0.0
2015-Aug-29 13:31N 53°32' E 009°58'0 0.0
2015-Aug-29 12:28N 53°32' E 009°58'0 0.0
2015-Aug-29 11:28N 53°32' E 009°58'0 0.0
2015-Aug-29 10:31N 53°32' E 009°58'0 0.0
2015-Aug-29 09:31N 53°32' E 009°58'0 0.0
2015-Aug-29 08:31N 53°32' E 009°58'0 0.0
2015-Aug-29 07:31N 53°32' E 009°58'0 0.0
2015-Aug-29 06:31N 53°32' E 009°58'0 0.0
2015-Aug-29 05:31N 53°32' E 009°58'0 0.0
2015-Aug-29 04:28N 53°32' E 009°58'0 0.0
2015-Aug-29 03:31N 53°32' E 009°58'0 0.0
2015-Aug-29 02:31N 53°32' E 009°58'1 1.5
2015-Aug-29 01:33N 53°32' E 009°55'1211.7
2015-Aug-29 00:33N 53°35' E 009°36'1212.1
2015-Aug-28 23:33N 53°45' E 009°24'1211.8
2015-Aug-28 22:33N 53°53' E 009°09'1313.1
2015-Aug-28 21:33N 53°50' E 008°47'1212.5
2015-Aug-28 20:33N 53°58' E 008°31'1312.8
2015-Aug-28 19:34N 53°59' E 008°09'6 6.3
2015-Aug-28 18:33N 53°53' E 008°04'9 8.6
2015-Aug-28 17:33N 53°46' E 008°12'1111.3
2015-Aug-28 16:34N 53°38' E 008°26'10 9.9
2015-Aug-28 15:33N 53°29' E 008°30'8 8.3
2015-Aug-28 14:33N 53°20' E 008°30'0 0.0
2015-Aug-28 13:31N 53°20' E 008°30'0 0.0
2015-Aug-28 12:32N 53°20' E 008°30'0 0.0
2015-Aug-28 11:31N 53°20' E 008°30'0 0.0
2015-Aug-28 10:31N 53°20' E 008°30'0 0.0
2015-Aug-28 09:31N 53°20' E 008°30'0 0.0
2015-Aug-28 08:32N 53°20' E 008°30'0 0.0
2015-Aug-28 07:31N 53°20' E 008°30'0 0.0
2015-Aug-28 06:32N 53°20' E 008°30'0 0.0
2015-Aug-28 05:31N 53°20' E 008°30'0 0.0
2015-Aug-28 04:33N 53°20' E 008°30'7 6.7
2015-Aug-28 03:33N 53°27' E 008°29'7 6.9
2015-Aug-28 02:33N 53°34' E 008°33'8 8.0
2015-Aug-28 01:33N 53°40' E 008°23'8 7.9
2015-Aug-28 00:33N 53°45' E 008°13'8 7.7
2015-Aug-27 23:33N 53°51' E 008°07'6 6.1
2015-Aug-27 22:33N 53°57' E 008°03'10 9.9
2015-Aug-27 21:33N 53°60' E 008°19'10 9.6
2015-Aug-27 20:33N 53°58' E 008°35'9 8.7
2015-Aug-27 19:33N 53°52' E 008°45'9 9.3
2015-Aug-27 18:34N 53°51' E 009°00'5 5.3
2015-Aug-27 17:33N 53°54' E 009°09'4 3.9
2015-Aug-27 16:34N 53°56' E 009°13'8 8.3
2015-Aug-27 15:33N 54°04' E 009°19'8 7.7
2015-Aug-27 14:33N 54°10' E 009°26'8 7.8
2015-Aug-27 13:33N 54°15' E 009°37'7 6.6
2015-Aug-27 12:33N 54°20' E 009°44'8 7.6
2015-Aug-27 11:33N 54°21' E 009°57'3 3.3
2015-Aug-27 10:33N 54°22' E 010°03'4 3.9
2015-Aug-27 09:33N 54°22' E 010°09'3 3.1
2015-Aug-27 08:33N 54°25' E 010°12'5 5.0
2015-Aug-27 07:33N 54°29' E 010°16'6 6.0
2015-Aug-27 06:33N 54°32' E 010°25'7 7.1
2015-Aug-27 05:33N 54°35' E 010°37'9 8.7
2015-Aug-27 04:33N 54°36' E 010°51'9 8.7
2015-Aug-27 03:33N 54°36' E 011°06'9 8.7
2015-Aug-27 02:33N 54°34' E 011°21'9 8.7
2015-Aug-27 01:33N 54°30' E 011°35'9 8.9
2015-Aug-27 00:33N 54°28' E 011°50'9 8.8
2015-Aug-26 23:33N 54°27' E 012°05'8 8.0
2015-Aug-26 22:33N 54°33' E 012°13'11 8.8
2015-Aug-26 21:15N 54°41' E 012°27'10 9.6
2015-Aug-26 20:12N 54°47' E 012°41'17 9.5
2015-Aug-26 18:28N 54°52' E 013°08'9 9.9
2015-Aug-26 17:33N 54°56' E 013°23'1110.6
2015-Aug-26 16:33N 54°60' E 013°40'1010.5
2015-Aug-26 15:33N 55°04' E 013°57'1010.1
2015-Aug-26 14:33N 55°10' E 014°11'1010.3
2015-Aug-26 13:33N 55°18' E 014°22'1010.2
2015-Aug-26 12:33N 55°26' E 014°34'10 9.8
2015-Aug-26 11:33N 55°31' E 014°48'10 9.9
2015-Aug-26 10:33N 55°36' E 015°03'1010.0
2015-Aug-26 09:31N 55°41' E 015°19'9410.1
2015-Aug-26 00:11N 56°34' E 017°39'141 9.6
2015-Aug-25 09:33N 58°16' E 020°41'2010.2
2015-Aug-25 07:33N 58°31' E 021°07'1010.0
2015-Aug-25 06:33N 58°39' E 021°19'1210.3
2015-Aug-25 05:26N 58°48' E 021°34'910.5
2015-Aug-25 04:33N 58°55' E 021°45'1010.2
2015-Aug-25 03:33N 59°01' E 022°01'1010.5
2015-Aug-25 02:33N 59°07' E 022°17'1010.4
2015-Aug-25 01:34N 59°12' E 022°35'1110.7
2015-Aug-25 00:33N 59°16' E 022°54'1111.2
2015-Aug-24 23:33N 59°21' E 023°14'1110.8
2015-Aug-24 22:33N 59°26' E 023°33'1010.2
2015-Aug-24 21:33N 59°31' E 023°51'1010.1
2015-Aug-24 20:33N 59°35' E 024°09'1010.4
2015-Aug-24 19:33N 59°40' E 024°26'1010.4
2015-Aug-24 18:33N 59°44' E 024°46'1010.1
2015-Aug-24 17:33N 59°46' E 025°05'10 9.9
2015-Aug-24 16:33N 59°48' E 025°24'10 9.9
2015-Aug-24 15:33N 59°50' E 025°44'9 9.5
2015-Aug-24 14:33N 59°54' E 026°01'10 9.8
2015-Aug-24 13:33N 60°02' E 026°11'1010.0
2015-Aug-24 12:33N 60°11' E 026°21'10 9.8
2015-Aug-24 11:33N 60°18' E 026°34'10 9.7
2015-Aug-24 10:33N 60°24' E 026°50'7 6.6
2015-Aug-24 09:33N 60°29' E 026°57'0 0.0
2015-Aug-24 08:31N 60°29' E 026°57'0 0.0
2015-Aug-24 07:31N 60°29' E 026°57'0 0.0
2015-Aug-24 06:31N 60°29' E 026°57'0 0.0
2015-Aug-24 05:31N 60°29' E 026°57'0 0.0
2015-Aug-24 04:28N 60°29' E 026°57'0 0.0
2015-Aug-24 03:31N 60°29' E 026°57'0 0.0
2015-Aug-24 02:31N 60°29' E 026°57'0 0.0
2015-Aug-24 01:31N 60°29' E 026°57'0 0.0
2015-Aug-24 00:31N 60°29' E 026°57'0 0.0
2015-Aug-23 23:31N 60°29' E 026°57'0 0.0
2015-Aug-23 22:31N 60°29' E 026°57'0 0.0
2015-Aug-23 21:31N 60°29' E 026°57'0 0.0
2015-Aug-23 20:31N 60°29' E 026°57'0 0.0
2015-Aug-23 19:31N 60°29' E 026°57'0 0.0
2015-Aug-23 18:31N 60°29' E 026°57'0 0.0
2015-Aug-23 17:31N 60°29' E 026°57'0 0.0
2015-Aug-23 16:28N 60°29' E 026°57'  
Track history (hours):
 
Tides and Currents Weather Stations Pressure Air Temp Water Temp Dewpoint Dewpoint Depression Visibility Wind Speed Wind Dir Waves Ship Positions

Robijn

Last reported at 2015-Sep-02 15:33 UTC. Time now 2015-Sep-02 18:59 UTC.
Position N 55°37' E 015°28'.

Length 90 m; draft 3.7 m.

Type: Cargo ship. MMSI: 245909000.

Date/timePositionNaut miles runAvg speedWind from/ knotsBaromVisibWave heightAir tempDewpointWater temp
2015-Sep-02 15:33N 55°37' E 015°28'1111.3
2015-Sep-02 14:33N 55°32' E 015°10'1111.1
2015-Sep-02 13:34N 55°27' E 014°53'1110.9
2015-Sep-02 12:34N 55°21' E 014°37'1110.9
2015-Sep-02 11:33N 55°12' E 014°25'1110.9
2015-Sep-02 10:33N 55°04' E 014°12'1110.9
2015-Sep-02 09:33N 54°59' E 013°55'1111.1
2015-Sep-02 08:33N 54°55' E 013°37'5011.3
2015-Sep-02 04:11N 54°33' E 012°20'711.3
2015-Sep-02 03:33N 54°27' E 012°14'1111.2
2015-Sep-02 02:33N 54°25' E 011°55'1111.4
2015-Sep-02 01:33N 54°28' E 011°36'1211.6
2015-Sep-02 00:33N 54°32' E 011°18'1212.0
2015-Sep-01 23:33N 54°36' E 010°58'1211.7
2015-Sep-01 22:31N 54°41' E 010°40'1311.7
2015-Sep-01 21:25N 54°49' E 010°21'1011.9
2015-Sep-01 20:33N 54°57' E 010°10'3 0.1
2015-Aug-30 21:13N 54°58' E 010°07'6 8.5
2015-Aug-30 20:33N 54°53' E 010°10'8 8.4
2015-Aug-30 19:33N 54°45' E 010°14'8 8.1
2015-Aug-30 18:33N 54°37' E 010°17'8 7.8
2015-Aug-30 17:33N 54°29' E 010°17'9 8.7
2015-Aug-30 16:33N 54°22' E 010°09'1 1.1
2015-Aug-30 15:33N 54°22' E 010°08'7 7.2
2015-Aug-30 14:33N 54°21' E 009°55'7 7.4
2015-Aug-30 13:33N 54°19' E 009°43'6 6.0
2015-Aug-30 12:33N 54°14' E 009°37'7 7.0
2015-Aug-30 11:31N 54°10' E 009°26'6 5.4
2015-Aug-30 10:22N 54°06' E 009°20'7 8.2
2015-Aug-30 09:33N 53°59' E 009°17'7 7.3
2015-Aug-30 08:33N 53°54' E 009°09'0 0.0
2015-Aug-30 07:33N 53°54' E 009°09'3 3.0
2015-Aug-30 06:33N 53°53' E 009°14'1212.2
2015-Aug-30 05:33N 53°44' E 009°27'1212.0
2015-Aug-30 04:33N 53°34' E 009°39'1010.3
2015-Aug-30 03:33N 53°32' E 009°56'1 0.9
2015-Aug-30 02:31N 53°31' E 009°57'0 0.0
2015-Aug-30 01:31N 53°31' E 009°57'0 0.0
2015-Aug-30 00:31N 53°31' E 009°57'0 0.0
2015-Aug-29 23:31N 53°31' E 009°57'0 0.0
2015-Aug-29 22:31N 53°31' E 009°57'0 0.0
2015-Aug-29 21:31N 53°31' E 009°57'0 0.0
2015-Aug-29 20:31N 53°31' E 009°57'0 0.0
2015-Aug-29 19:33N 53°31' E 009°57'1 1.0
2015-Aug-29 18:33N 53°32' E 009°58'0 0.0
2015-Aug-29 17:31N 53°32' E 009°58'0 0.0
2015-Aug-29 16:31N 53°32' E 009°58'0 0.0
2015-Aug-29 15:31N 53°32' E 009°58'0 0.0
2015-Aug-29 14:28N 53°32' E 009°58'0 0.0
2015-Aug-29 13:31N 53°32' E 009°58'0 0.0
2015-Aug-29 12:28N 53°32' E 009°58'0 0.0
2015-Aug-29 11:28N 53°32' E 009°58'0 0.0
2015-Aug-29 10:31N 53°32' E 009°58'0 0.0
2015-Aug-29 09:31N 53°32' E 009°58'0 0.0
2015-Aug-29 08:31N 53°32' E 009°58'0 0.0
2015-Aug-29 07:31N 53°32' E 009°58'0 0.0
2015-Aug-29 06:31N 53°32' E 009°58'0 0.0
2015-Aug-29 05:31N 53°32' E 009°58'0 0.0
2015-Aug-29 04:28N 53°32' E 009°58'0 0.0
2015-Aug-29 03:31N 53°32' E 009°58'0 0.0
2015-Aug-29 02:31N 53°32' E 009°58'1 1.5
2015-Aug-29 01:33N 53°32' E 009°55'1211.7
2015-Aug-29 00:33N 53°35' E 009°36'1212.1
2015-Aug-28 23:33N 53°45' E 009°24'1211.8
2015-Aug-28 22:33N 53°53' E 009°09'1313.1
2015-Aug-28 21:33N 53°50' E 008°47'1212.5
2015-Aug-28 20:33N 53°58' E 008°31'1312.8
2015-Aug-28 19:34N 53°59' E 008°09'6 6.3
2015-Aug-28 18:33N 53°53' E 008°04'9 8.6
2015-Aug-28 17:33N 53°46' E 008°12'1111.3
2015-Aug-28 16:34N 53°38' E 008°26'10 9.9
2015-Aug-28 15:33N 53°29' E 008°30'8 8.3
2015-Aug-28 14:33N 53°20' E 008°30'0 0.0
2015-Aug-28 13:31N 53°20' E 008°30'0 0.0
2015-Aug-28 12:32N 53°20' E 008°30'0 0.0
2015-Aug-28 11:31N 53°20' E 008°30'0 0.0
2015-Aug-28 10:31N 53°20' E 008°30'0 0.0
2015-Aug-28 09:31N 53°20' E 008°30'0 0.0
2015-Aug-28 08:32N 53°20' E 008°30'0 0.0
2015-Aug-28 07:31N 53°20' E 008°30'0 0.0
2015-Aug-28 06:32N 53°20' E 008°30'0 0.0
2015-Aug-28 05:31N 53°20' E 008°30'0 0.0
2015-Aug-28 04:33N 53°20' E 008°30'7 6.7
2015-Aug-28 03:33N 53°27' E 008°29'7 6.9
2015-Aug-28 02:33N 53°34' E 008°33'8 8.0
2015-Aug-28 01:33N 53°40' E 008°23'8 7.9
2015-Aug-28 00:33N 53°45' E 008°13'8 7.7
2015-Aug-27 23:33N 53°51' E 008°07'6 6.1
2015-Aug-27 22:33N 53°57' E 008°03'10 9.9
2015-Aug-27 21:33N 53°60' E 008°19'10 9.6
2015-Aug-27 20:33N 53°58' E 008°35'9 8.7
2015-Aug-27 19:33N 53°52' E 008°45'9 9.3
2015-Aug-27 18:34N 53°51' E 009°00'5 5.3
2015-Aug-27 17:33N 53°54' E 009°09'4 3.9
2015-Aug-27 16:34N 53°56' E 009°13'8 8.3
2015-Aug-27 15:33N 54°04' E 009°19'8 7.7
2015-Aug-27 14:33N 54°10' E 009°26'8 7.8
2015-Aug-27 13:33N 54°15' E 009°37'7 6.6
2015-Aug-27 12:33N 54°20' E 009°44'8 7.6
2015-Aug-27 11:33N 54°21' E 009°57'3 3.3
2015-Aug-27 10:33N 54°22' E 010°03'4 3.9
2015-Aug-27 09:33N 54°22' E 010°09'3 3.1
2015-Aug-27 08:33N 54°25' E 010°12'5 5.0
2015-Aug-27 07:33N 54°29' E 010°16'6 6.0
2015-Aug-27 06:33N 54°32' E 010°25'7 7.1
2015-Aug-27 05:33N 54°35' E 010°37'9 8.7
2015-Aug-27 04:33N 54°36' E 010°51'9 8.7
2015-Aug-27 03:33N 54°36' E 011°06'9 8.7
2015-Aug-27 02:33N 54°34' E 011°21'9 8.7
2015-Aug-27 01:33N 54°30' E 011°35'9 8.9
2015-Aug-27 00:33N 54°28' E 011°50'9 8.8
2015-Aug-26 23:33N 54°27' E 012°05'8 8.0
2015-Aug-26 22:33N 54°33' E 012°13'11 8.8
2015-Aug-26 21:15N 54°41' E 012°27'10 9.6
2015-Aug-26 20:12N 54°47' E 012°41'17 9.5
2015-Aug-26 18:28N 54°52' E 013°08'9 9.9
2015-Aug-26 17:33N 54°56' E 013°23'1110.6
2015-Aug-26 16:33N 54°60' E 013°40'1010.5
2015-Aug-26 15:33N 55°04' E 013°57'1010.1
2015-Aug-26 14:33N 55°10' E 014°11'1010.3
2015-Aug-26 13:33N 55°18' E 014°22'1010.2
2015-Aug-26 12:33N 55°26' E 014°34'10 9.8
2015-Aug-26 11:33N 55°31' E 014°48'10 9.9
2015-Aug-26 10:33N 55°36' E 015°03'1010.0
2015-Aug-26 09:31N 55°41' E 015°19'9410.1
2015-Aug-26 00:11N 56°34' E 017°39'141 9.6
2015-Aug-25 09:33N 58°16' E 020°41'2010.2
2015-Aug-25 07:33N 58°31' E 021°07'1010.0
2015-Aug-25 06:33N 58°39' E 021°19'1210.3
2015-Aug-25 05:26N 58°48' E 021°34'910.5
2015-Aug-25 04:33N 58°55' E 021°45'1010.2
2015-Aug-25 03:33N 59°01' E 022°01'1010.5
2015-Aug-25 02:33N 59°07' E 022°17'1010.4
2015-Aug-25 01:34N 59°12' E 022°35'1110.7
2015-Aug-25 00:33N 59°16' E 022°54'1111.2
2015-Aug-24 23:33N 59°21' E 023°14'1110.8
2015-Aug-24 22:33N 59°26' E 023°33'1010.2
2015-Aug-24 21:33N 59°31' E 023°51'1010.1
2015-Aug-24 20:33N 59°35' E 024°09'1010.4
2015-Aug-24 19:33N 59°40' E 024°26'1010.4
2015-Aug-24 18:33N 59°44' E 024°46'1010.1
2015-Aug-24 17:33N 59°46' E 025°05'10 9.9
2015-Aug-24 16:33N 59°48' E 025°24'10 9.9
2015-Aug-24 15:33N 59°50' E 025°44'9 9.5
2015-Aug-24 14:33N 59°54' E 026°01'10 9.8
2015-Aug-24 13:33N 60°02' E 026°11'1010.0
2015-Aug-24 12:33N 60°11' E 026°21'10 9.8
2015-Aug-24 11:33N 60°18' E 026°34'10 9.7
2015-Aug-24 10:33N 60°24' E 026°50'7 6.6
2015-Aug-24 09:33N 60°29' E 026°57'0 0.0
2015-Aug-24 08:31N 60°29' E 026°57'0 0.0
2015-Aug-24 07:31N 60°29' E 026°57'0 0.0
2015-Aug-24 06:31N 60°29' E 026°57'0 0.0
2015-Aug-24 05:31N 60°29' E 026°57'0 0.0
2015-Aug-24 04:28N 60°29' E 026°57'0 0.0
2015-Aug-24 03:31N 60°29' E 026°57'0 0.0
2015-Aug-24 02:31N 60°29' E 026°57'0 0.0
2015-Aug-24 01:31N 60°29' E 026°57'0 0.0
2015-Aug-24 00:31N 60°29' E 026°57'0 0.0
2015-Aug-23 23:31N 60°29' E 026°57'0 0.0
2015-Aug-23 22:31N 60°29' E 026°57'0 0.0
2015-Aug-23 21:31N 60°29' E 026°57'0 0.0
2015-Aug-23 20:31N 60°29' E 026°57'0 0.0
2015-Aug-23 19:31N 60°29' E 026°57'0 0.0
2015-Aug-23 18:31N 60°29' E 026°57'0 0.0
2015-Aug-23 17:31N 60°29' E 026°57'0 0.0
2015-Aug-23 16:28N 60°29' E 026°57'  

Dump ship's entire track history